Time;durP1;ratioP1;P1;durP2;ratioP2;P2;SDS_P1;SDS_P2;PMS_P1;PMS_P2;Temp;Humidity;BMP_temperature;BMP_pressure;BME280_temperature;BME280_humidity;BME280_pressure;Samples;Min_cycle;Max_cycle;Signal;HPM_P1;HPM_P2
2023/03/13 05:31:19;;;;;;;;;6.25;5.75;;;;;15.02;74.32;100110.72;1429825;25;46820;-75
2023/03/13 05:33:44;;;;;;;;;4.75;3.75;;;;;15.00;74.46;100124.31;5077881;28;45529;-74
2023/03/13 05:36:09;;;;;;;;;8.50;7.50;;;;;14.99;74.59;100105.53;5077901;28;45382;-76
2023/03/13 05:38:35;;;;;;;;;4.75;4.25;;;;;14.98;74.34;100093.00;5077407;28;45397;-75
2023/03/13 05:41:00;;;;;;;;;6.00;4.25;;;;;14.96;74.20;100111.16;5077495;28;45408;-74
2023/03/13 05:43:25;;;;;;;;;4.25;3.25;;;;;14.84;75.05;100115.63;5077143;28;50592;-74
2023/03/13 05:45:51;;;;;;;;;6.75;4.75;;;;;14.85;75.00;100100.28;5077406;28;45342;-74
2023/03/13 05:48:16;;;;;;;;;4.50;4.50;;;;;14.76;75.32;100113.50;5077474;28;45408;-74
2023/03/13 05:50:42;;;;;;;;;4.00;3.50;;;;;14.74;75.38;100103.78;5076989;28;57306;-75
2023/03/13 05:53:07;;;;;;;;;7.00;5.00;;;;;14.85;74.93;100117.34;5076917;28;45412;-74
2023/03/13 05:55:32;;;;;;;;;5.00;4.25;;;;;14.84;75.13;100112.94;5077346;28;45548;-74
2023/03/13 05:57:58;;;;;;;;;7.75;5.50;;;;;14.90;75.22;100111.59;5077244;28;45451;-75
2023/03/13 06:00:23;;;;;;;;;4.00;4.00;;;;;14.86;75.24;100097.50;5058503;28;45318;-74
2023/03/13 06:02:48;;;;;;;;;4.75;3.75;;;;;14.73;75.39;100070.53;5076529;28;45887;-75
2023/03/13 06:05:14;;;;;;;;;5.00;5.00;;;;;14.85;75.47;100094.91;5077186;28;45362;-74
2023/03/13 06:07:39;;;;;;;;;9.25;5.00;;;;;14.84;75.58;100091.34;5077150;28;45590;-74
2023/03/13 06:10:05;;;;;;;;;4.50;3.75;;;;;14.87;75.56;100090.25;5076840;28;45501;-75
2023/03/13 06:12:30;;;;;;;;;5.25;5.25;;;;;14.86;75.48;100085.84;5076750;28;45465;-74
2023/03/13 06:14:56;;;;;;;;;5.50;5.00;;;;;14.84;76.17;100090.47;5076959;28;45451;-75
2023/03/13 06:17:21;;;;;;;;;6.50;4.00;;;;;14.84;76.22;100093.16;5058561;28;45617;-74
2023/03/13 06:19:46;;;;;;;;;5.00;5.00;;;;;14.74;76.47;100072.25;5076416;28;45521;-75
2023/03/13 06:22:13;;;;;;;;;7.75;5.00;;;;;14.67;77.03;100086.31;5058346;28;46228;-74
2023/03/13 06:24:38;;;;;;;;;4.25;4.25;;;;;14.76;77.37;100085.66;5076584;28;45408;-75
2023/03/13 06:27:06;;;;;;;;;5.00;5.00;;;;;14.66;77.75;100074.66;5076932;28;45469;-76
2023/03/13 06:29:31;;;;;;;;;1.25;1.25;;;;;14.63;77.51;100069.47;5076853;28;45370;-72
2023/03/13 06:31:56;;;;;;;;;5.50;5.50;;;;;14.60;77.46;100075.13;5076029;28;45597;-75
2023/03/13 06:34:22;;;;;;;;;3.00;3.00;;;;;14.66;77.26;100084.59;5076543;28;45301;-74
2023/03/13 06:36:47;;;;;;;;;4.75;3.75;;;;;14.71;77.25;100068.94;5076592;28;45450;-74
2023/03/13 06:39:12;;;;;;;;;5.00;5.00;;;;;14.71;77.40;100072.50;5075273;28;49055;-74
2023/03/13 06:41:38;;;;;;;;;5.00;5.00;;;;;14.76;77.17;100074.84;5076351;28;47577;-73
2023/03/13 06:44:04;;;;;;;;;6.25;4.00;;;;;14.73;77.17;100078.63;5076225;28;51274;-74
2023/03/13 06:46:30;;;;;;;;;7.25;3.00;;;;;14.61;77.86;100059.81;5076630;28;45433;-74
2023/03/13 06:48:56;;;;;;;;;7.75;4.50;;;;;14.65;78.43;100078.34;5076116;28;45892;-75
2023/03/13 06:51:22;;;;;;;;;5.00;5.00;;;;;14.64;78.21;100059.56;5059521;28;48798;-78
2023/03/13 06:53:47;;;;;;;;;6.00;5.00;;;;;14.57;78.21;100037.56;5076062;28;45397;-78
2023/03/13 06:56:13;;;;;;;;;7.50;5.50;;;;;14.68;78.03;100056.53;5076221;27;45319;-76
2023/03/13 06:58:39;;;;;;;;;6.50;6.50;;;;;14.74;77.66;100061.47;5076049;28;46283;-78
2023/03/13 07:01:09;;;;;;;;;5.25;5.25;;;;;14.65;77.61;100061.28;5075736;27;45773;-76
2023/03/13 07:03:35;;;;;;;;;5.75;3.75;;;;;14.66;77.57;100058.47;5071546;28;45188;-75
2023/03/13 07:06:02;;;;;;;;;5.00;5.00;;;;;14.67;77.73;100062.03;5076181;28;45435;-77
2023/03/13 07:08:27;;;;;;;;;4.75;3.50;;;;;14.66;77.57;100058.47;5057341;28;45403;-74
2023/03/13 07:10:57;;;;;;;;;5.00;4.50;;;;;14.66;77.26;100039.59;5075757;28;46021;-76
2023/03/13 07:13:22;;;;;;;;;3.00;3.00;;;;;14.77;76.99;100053.16;5076005;28;45394;-74
2023/03/13 07:15:48;;;;;;;;;5.25;3.75;;;;;14.74;77.41;100057.91;5075851;28;45434;-73
2023/03/13 07:18:13;;;;;;;;;6.00;4.50;;;;;14.67;77.46;100049.41;5076240;28;45309;-73
2023/03/13 07:20:39;;;;;;;;;6.00;4.75;;;;;14.68;77.65;100056.53;5075938;28;46351;-72
2023/03/13 07:23:04;;;;;;;;;5.50;5.50;;;;;14.64;77.06;100037.97;5076102;28;45997;-72
2023/03/13 07:25:30;;;;;;;;;5.00;5.00;;;;;14.75;77.24;100049.69;5076259;28;45489;-70
2023/03/13 07:27:56;;;;;;;;;4.00;4.00;;;;;14.80;76.95;100051.22;5071094;28;45278;-71
2023/03/13 07:30:21;;;;;;;;;4.75;4.75;;;;;14.82;76.85;100038.44;5072797;28;45451;-73
2023/03/13 07:32:46;;;;;;;;;5.50;4.00;;;;;14.88;76.72;100054.19;5074445;28;45276;-72
2023/03/13 07:35:12;;;;;;;;;6.50;5.00;;;;;14.92;76.66;100045.75;5075364;28;45316;-71
2023/03/13 07:37:37;;;;;;;;;5.25;3.75;;;;;14.89;76.44;100029.78;5057843;28;45391;-73
2023/03/13 07:40:04;;;;;;;;;7.00;6.00;;;;;14.85;76.65;100027.44;5072993;28;59469;-69
2023/03/13 07:42:30;;;;;;;;;7.50;6.00;;;;;14.97;76.53;100037.31;5053988;28;45536;-72
2023/03/13 07:44:55;;;;;;;;;5.00;5.00;;;;;15.00;76.30;100035.22;5072165;28;45597;-73
2023/03/13 07:47:20;;;;;;;;;2.00;2.00;;;;;14.98;76.62;100026.38;5074003;28;55360;-74
2023/03/13 07:49:46;;;;;;;;;4.75;4.75;;;;;14.97;79.99;100015.72;5072699;28;55648;-71
2023/03/13 07:52:11;;;;;;;;;5.50;5.50;;;;;15.03;77.21;100015.25;5074200;28;45387;-73
2023/03/13 07:54:37;;;;;;;;;5.75;4.00;;;;;15.01;77.36;100015.38;5076696;27;45359;-72
2023/03/13 07:57:02;;;;;;;;;2.75;1.50;;;;;15.00;77.18;100016.34;5085946;27;46421;-71
2023/03/13 07:59:28;;;;;;;;;7.00;4.75;;;;;15.06;77.20;100015.88;5072779;28;46239;-73
2023/03/13 08:01:53;;;;;;;;;4.75;4.75;;;;;14.99;76.80;100008.34;5074962;28;45374;-72
2023/03/13 08:04:19;;;;;;;;;5.25;4.25;;;;;14.94;76.69;100006.00;5074693;28;45847;-73
2023/03/13 08:06:44;;;;;;;;;4.75;4.00;;;;;15.07;76.65;100009.50;5069310;28;45529;-73
2023/03/13 08:09:11;;;;;;;;;5.00;4.75;;;;;15.04;75.93;100008.88;5057045;28;45631;-74
2023/03/13 08:11:40;;;;;;;;;4.50;4.00;;;;;15.07;76.04;100016.72;5074567;28;45362;-73
2023/03/13 08:14:05;;;;;;;;;6.25;5.25;;;;;15.04;76.19;100008.88;5072297;28;45891;-74
2023/03/13 08:16:33;;;;;;;;;4.50;4.50;;;;;15.08;76.12;100011.22;5074318;28;45417;-71
2023/03/13 08:18:59;;;;;;;;;4.00;4.00;;;;;15.01;76.13;99988.38;5068829;28;45915;-73
2023/03/13 08:21:30;;;;;;;;;5.00;4.75;;;;;15.12;76.18;100001.06;5071214;28;45427;-72
2023/03/13 08:24:02;;;;;;;;;6.00;5.00;;;;;15.07;76.05;99971.69;5059105;28;45333;-71
2023/03/13 08:26:29;;;;;;;;;7.25;5.00;;;;;15.09;75.71;99983.25;5053637;28;45668;-71
2023/03/13 08:28:57;;;;;;;;;9.00;4.25;;;;;15.17;76.25;99987.19;5074959;28;45393;-72
2023/03/13 08:31:26;;;;;;;;;5.00;5.00;;;;;15.16;75.79;99978.22;5073667;28;45504;-72
2023/03/13 08:33:52;;;;;;;;;5.75;4.75;;;;;15.17;76.02;99968.28;5052965;28;45468;-74
2023/03/13 08:36:23;;;;;;;;;5.50;4.00;;;;;15.21;75.47;99981.44;5069196;28;45376;-73
2023/03/13 08:38:50;;;;;;;;;4.50;4.50;;;;;15.22;75.51;99985.88;5074727;27;45432;-72
2023/03/13 08:41:18;;;;;;;;;4.50;4.00;;;;;15.27;74.99;99977.41;5074433;27;45336;-72
2023/03/13 08:43:44;;;;;;;;;4.75;4.00;;;;;15.27;75.13;99972.00;5061842;27;45458;-72
2023/03/13 08:46:10;;;;;;;;;5.25;4.25;;;;;15.27;75.00;99975.56;5071976;28;45405;-71
2023/03/13 08:48:35;;;;;;;;;4.25;4.25;;;;;15.29;75.57;99970.06;5074029;28;46105;-71
2023/03/13 08:51:09;;;;;;;;;7.00;4.75;;;;;15.32;74.89;99988.69;5066125;28;45418;-71
2023/03/13 08:53:35;;;;;;;;;3.50;3.50;;;;;15.39;74.73;99966.53;5073993;27;45507;-73
2023/03/13 08:56:01;;;;;;;;;7.00;5.00;;;;;15.32;75.16;99950.91;5074073;27;45513;-72
2023/03/13 08:58:27;;;;;;;;;6.50;4.00;;;;;15.29;75.13;99961.97;5055922;28;46085;-72
2023/03/13 09:00:53;;;;;;;;;5.50;4.00;;;;;15.32;74.65;99948.19;5071697;28;45531;-74
2023/03/13 09:03:19;;;;;;;;;4.00;1.00;;;;;15.42;74.71;99950.06;5073436;28;45437;-75
2023/03/13 09:05:46;;;;;;;;;5.00;4.00;;;;;15.42;74.53;99928.44;5073796;28;45476;-72
2023/03/13 09:08:13;;;;;;;;;5.00;2.75;;;;;15.58;74.40;99948.88;5072746;28;45345;-72
2023/03/13 09:10:38;;;;;;;;;2.75;2.75;;;;;15.55;75.20;99935.63;5074268;28;45381;-73
2023/03/13 09:13:03;;;;;;;;;6.00;5.00;;;;;15.57;76.71;99931.81;5074270;28;45477;-73
2023/03/13 09:15:29;;;;;;;;;2.50;2.50;;;;;15.52;76.98;99928.59;5068476;28;45470;-76
2023/03/13 09:17:54;;;;;;;;;4.75;3.50;;;;;15.37;77.50;99900.97;5059886;28;45507;-73
2023/03/13 09:20:19;;;;;;;;;7.00;4.50;;;;;15.54;77.97;99913.16;5073008;28;45358;-74
2023/03/13 09:22:45;;;;;;;;;5.00;5.00;;;;;15.58;77.60;99911.06;5074516;27;45306;-76
2023/03/13 09:25:12;;;;;;;;;5.75;4.50;;;;;15.49;77.91;99901.81;5068197;28;45843;-75
2023/03/13 09:27:37;;;;;;;;;5.75;4.00;;;;;15.48;77.29;99890.13;5070277;28;46129;-77
2023/03/13 09:30:03;;;;;;;;;4.50;3.50;;;;;15.44;77.00;99885.13;5061992;28;45597;-74
2023/03/13 09:32:28;;;;;;;;;4.25;4.25;;;;;15.39;77.33;99876.53;5061398;28;45401;-75
2023/03/13 09:34:54;;;;;;;;;4.75;4.00;;;;;15.41;76.71;99891.63;5069006;28;45444;-73
2023/03/13 09:37:20;;;;;;;;;4.25;3.00;;;;;15.42;76.58;99874.44;5073558;27;46187;-72
2023/03/13 09:39:45;;;;;;;;;6.50;4.50;;;;;15.50;76.22;99880.09;5072180;28;45455;-72
2023/03/13 09:42:15;;;;;;;;;5.75;4.00;;;;;15.50;76.22;99881.91;5072808;28;45303;-72
2023/03/13 09:44:49;;;;;;;;;4.25;3.00;;;;;15.42;76.08;99887.94;5073465;27;45546;-72
2023/03/13 09:47:25;;;;;;;;;3.00;3.00;;;;;15.64;75.32;99873.63;5064652;28;47634;-72
2023/03/13 09:49:56;;;;;;;;;3.00;3.00;;;;;15.69;74.97;99873.22;5073399;28;45339;-74
2023/03/13 09:52:23;;;;;;;;;5.00;3.25;;;;;15.71;74.51;99861.34;5073965;27;45466;-72
2023/03/13 09:55:11;;;;;;;;;3.00;3.00;;;;;15.72;74.20;99867.59;5072239;27;45515;-74
2023/03/13 09:57:45;;;;;;;;;2.75;2.75;;;;;15.60;75.34;99872.13;5073314;28;45430;-73
2023/03/13 10:00:15;;;;;;;;;3.00;3.00;;;;;15.65;75.46;99860.97;5074098;27;45406;-73
2023/03/13 10:02:45;;;;;;;;;4.00;4.00;;;;;15.65;75.74;99858.28;5064774;27;45439;-72
2023/03/13 10:05:22;;;;;;;;;5.75;4.00;;;;;15.67;75.80;99853.56;5073436;28;45535;-72
2023/03/13 10:07:48;;;;;;;;;3.00;2.75;;;;;15.67;75.07;99858.97;5071759;28;45496;-73
2023/03/13 10:10:24;;;;;;;;;2.00;2.00;;;;;15.65;75.20;99847.47;5064413;27;45842;-77
2023/03/13 10:12:56;;;;;;;;;5.00;3.00;;;;;15.79;74.18;99848.06;5060158;28;45768;-74
2023/03/13 10:15:49;;;;;;;;;3.00;2.00;;;;;15.91;73.21;99856.16;5070255;27;45916;-74
2023/03/13 10:18:19;;;;;;;;;7.00;3.00;;;;;16.05;73.30;99840.50;5076204;28;45460;-73
2023/03/13 10:20:46;;;;;;;;;3.75;2.75;;;;;16.16;72.66;99840.44;5076586;28;45362;-74
2023/03/13 10:23:35;;;;;;;;;3.00;2.50;;;;;16.22;71.78;99847.22;5076707;28;45831;-73
2023/03/13 10:26:00;;;;;;;;;3.50;3.00;;;;;16.28;71.41;99842.13;5076740;28;45393;-73
2023/03/13 10:28:25;;;;;;;;;4.00;2.50;;;;;16.32;70.45;99818.41;5076127;28;45330;-73
2023/03/13 10:31:07;;;;;;;;;3.00;3.00;;;;;16.41;70.17;99841.97;5076752;28;45334;-73
2023/03/13 10:33:35;;;;;;;;;3.00;3.00;;;;;16.56;70.31;99829.00;5069061;28;45463;-72
2023/03/13 10:36:12;;;;;;;;;2.00;2.00;;;;;16.61;69.76;99797.00;5076558;28;45468;-73
2023/03/13 10:38:53;;;;;;;;;3.00;1.25;;;;;16.77;69.63;99804.66;5076951;28;46197;-72
2023/03/13 10:41:25;;;;;;;;;2.00;2.00;;;;;16.70;68.88;99798.06;5076343;27;45310;-71
2023/03/13 10:43:58;;;;;;;;;2.00;2.00;;;;;16.68;68.77;99794.63;5076856;27;45318;-75
2023/03/13 10:46:25;;;;;;;;;1.25;1.25;;;;;16.61;68.39;99787.03;5074316;28;45494;-70
2023/03/13 10:48:54;;;;;;;;;4.25;1.50;;;;;16.89;67.66;99819.84;5076101;28;46405;-75
2023/03/13 10:51:22;;;;;;;;;2.25;1.00;;;;;16.91;67.33;99817.88;5076419;27;45535;-74
2023/03/13 10:53:47;;;;;;;;;1.00;1.00;;;;;17.01;67.43;99795.25;5076386;27;45342;-72
2023/03/13 10:56:18;;;;;;;;;1.00;0.75;;;;;17.19;66.46;99789.22;5059719;28;47195;-72
2023/03/13 10:58:46;;;;;;;;;3.00;2.00;;;;;17.20;65.10;99788.22;5076101;28;46211;-73
2023/03/13 11:01:27;;;;;;;;;1.25;1.25;;;;;17.17;65.64;99767.72;5074647;28;45460;-72
2023/03/13 11:03:55;;;;;;;;;1.50;1.50;;;;;17.19;64.76;99800.06;5070583;28;45379;-73
2023/03/13 11:06:38;;;;;;;;;2.50;1.50;;;;;17.13;64.94;99766.25;5075774;28;45527;-75
2023/03/13 11:09:13;;;;;;;;;1.75;1.75;;;;;17.27;64.99;99762.31;5075493;28;46118;-75
2023/03/13 11:11:48;;;;;;;;;4.00;2.00;;;;;17.38;64.81;99745.97;5075961;28;45385;-74
2023/03/13 11:14:23;;;;;;;;;5.00;2.00;;;;;17.83;64.50;99772.63;5075845;28;45325;-71
2023/03/13 11:16:55;;;;;;;;;1.00;1.00;;;;;17.92;62.44;99788.06;5075563;28;45418;-72
2023/03/13 11:19:29;;;;;;;;;1.00;1.00;;;;;18.14;61.92;99787.78;5075228;28;46259;-74
2023/03/13 11:22:14;;;;;;;;;0.00;0.00;;;;;17.99;61.17;99789.22;5075700;28;45371;-75
2023/03/13 11:25:03;;;;;;;;;0.00;0.00;;;;;17.83;61.36;99787.06;5075124;28;45228;-71
2023/03/13 11:27:31;;;;;;;;;1.00;1.00;;;;;17.90;61.87;99792.78;5075780;28;45509;-75
2023/03/13 11:29:59;;;;;;;;;1.25;1.00;;;;;17.58;60.96;99785.69;5075491;28;46665;-73
2023/03/13 11:32:54;;;;;;;;;2.25;1.00;;;;;17.56;60.86;99778.69;5072287;28;45473;-73
2023/03/13 11:35:38;;;;;;;;;4.50;1.50;;;;;17.38;60.01;99757.66;5051090;28;45355;-74
2023/03/13 11:38:12;;;;;;;;;1.00;1.00;;;;;17.52;60.82;99774.53;5075220;28;45359;-73
2023/03/13 11:41:07;;;;;;;;;3.50;2.00;;;;;17.51;60.67;99783.66;5075682;28;45500;-77
2023/03/13 11:43:38;;;;;;;;;1.25;1.25;;;;;17.39;59.36;99772.06;5075711;28;45297;-73
2023/03/13 11:46:22;;;;;;;;;1.25;1.25;;;;;17.38;59.64;99776.63;5075475;28;45477;-75
2023/03/13 11:49:06;;;;;;;;;2.50;2.00;;;;;17.45;58.62;99757.09;5074389;28;45434;-73
2023/03/13 11:51:40;;;;;;;;;4.25;1.50;;;;;17.55;59.12;99775.09;5071081;28;45404;-73
2023/03/13 11:54:27;;;;;;;;;2.00;2.00;;;;;17.39;58.48;99775.63;5072844;28;45556;-75
2023/03/13 11:56:58;;;;;;;;;3.50;2.00;;;;;17.45;58.82;99760.66;5072610;28;45570;-76
2023/03/13 11:59:36;;;;;;;;;2.00;2.00;;;;;17.30;58.84;99760.19;5073217;28;45692;-70
2023/03/13 12:02:13;;;;;;;;;7.00;1.25;;;;;17.27;58.96;99759.59;5073101;28;46277;-74
2023/03/13 12:04:45;;;;;;;;;5.00;2.00;;;;;17.19;59.21;99754.88;5053676;28;45660;-72
2023/03/13 12:07:28;;;;;;;;;2.00;2.00;;;;;17.26;59.73;99761.47;5056938;28;45382;-73
2023/03/13 12:10:02;;;;;;;;;2.00;2.00;;;;;17.26;59.42;99757.91;5075059;28;45571;-71
2023/03/13 12:12:44;;;;;;;;;1.25;1.25;;;;;17.13;58.77;99738.31;5074977;28;45807;-72
2023/03/13 12:15:37;;;;;;;;;2.50;2.50;;;;;17.16;59.27;99747.03;5074695;28;45407;-72
2023/03/13 12:18:13;;;;;;;;;2.50;2.50;;;;;17.34;59.70;99728.28;5075498;28;45841;-71
2023/03/13 12:20:43;;;;;;;;;1.00;1.00;;;;;17.43;59.41;99724.75;5056293;28;45604;-70
2023/03/13 12:23:08;;;;;;;;;3.00;3.00;;;;;17.36;59.93;99716.28;5074981;28;45314;-71
2023/03/13 12:25:43;;;;;;;;;1.00;1.00;;;;;17.26;60.00;99726.25;5074986;28;45397;-71
2023/03/13 12:28:40;;;;;;;;;3.25;2.25;;;;;17.33;59.22;99731.97;5056824;28;45314;-73
2023/03/13 12:31:17;;;;;;;;;3.00;2.75;;;;;17.20;59.41;99682.59;5055221;28;45450;-71
2023/03/13 12:34:02;;;;;;;;;4.75;2.00;;;;;17.17;59.73;99704.56;5073811;28;46199;-72
2023/03/13 12:36:42;;;;;;;;;3.00;2.00;;;;;17.15;59.61;99674.91;5060394;28;45432;-71
2023/03/13 12:39:19;;;;;;;;;2.00;2.00;;;;;17.14;59.71;99666.91;5047006;28;45505;-72
2023/03/13 12:42:13;;;;;;;;;2.00;1.50;;;;;17.19;59.10;99667.34;5074708;28;45374;-74
2023/03/13 12:44:39;;;;;;;;;1.75;1.75;;;;;17.22;59.06;99675.19;5073658;28;45547;-72
2023/03/13 12:47:15;;;;;;;;;3.00;2.00;;;;;17.34;59.14;99664.13;5061235;28;45330;-73
2023/03/13 12:50:11;;;;;;;;;1.00;1.00;;;;;17.23;59.95;99629.00;5054173;28;45439;-70
2023/03/13 12:52:53;;;;;;;;;3.75;1.00;;;;;17.17;60.21;99613.31;5043953;28;45320;-70
2023/03/13 12:55:49;;;;;;;;;2.75;2.00;;;;;17.39;59.88;99644.72;5064230;28;45327;-74
2023/03/13 12:58:14;;;;;;;;;1.50;1.50;;;;;17.34;60.26;99604.50;5053994;28;45486;-70
2023/03/13 13:00:42;;;;;;;;;2.00;2.00;;;;;17.24;60.37;99636.16;5054164;28;45347;-71
2023/03/13 13:03:24;;;;;;;;;2.50;2.00;;;;;17.25;60.33;99678.50;5062135;28;46001;-71
2023/03/13 13:06:08;;;;;;;;;1.50;1.00;;;;;17.11;60.15;99619.28;5068120;28;45886;-70
2023/03/13 13:08:42;;;;;;;;;5.00;2.00;;;;;17.12;60.20;99604.75;5066879;28;45369;-70
2023/03/13 13:11:32;;;;;;;;;3.00;1.00;;;;;17.01;60.21;99597.59;5054394;28;45390;-71
2023/03/13 13:13:59;;;;;;;;;2.00;1.00;;;;;17.15;59.85;99568.41;5053968;28;45455;-71
2023/03/13 13:16:26;;;;;;;;;4.00;0.75;;;;;17.51;58.68;99569.59;5064711;28;45927;-70
2023/03/13 13:18:51;;;;;;;;;5.50;2.00;;;;;18.48;57.18;99582.81;5056015;28;46014;-71
2023/03/13 13:21:17;;;;;;;;;4.25;1.00;;;;;18.81;55.26;99569.69;5063684;28;45360;-72
2023/03/13 13:23:47;;;;;;;;;1.00;1.00;;;;;18.99;53.50;99550.72;5053584;28;45405;-70
2023/03/13 13:26:32;;;;;;;;;2.75;2.00;;;;;18.86;53.93;99556.53;5064896;28;45346;-70
2023/03/13 13:29:10;;;;;;;;;2.00;2.00;;;;;18.78;54.33;99546.44;5054208;28;45316;-71
2023/03/13 13:31:44;;;;;;;;;2.00;0.00;;;;;18.75;54.95;99544.00;5053804;28;45387;-70
2023/03/13 13:34:29;;;;;;;;;2.00;2.00;;;;;19.35;54.81;99546.16;5053807;28;45580;-71
2023/03/13 13:37:00;;;;;;;;;4.75;1.00;;;;;19.47;53.08;99544.94;5038666;28;47189;-70
2023/03/13 13:39:46;;;;;;;;;1.50;1.50;;;;;19.48;53.26;99531.19;5053595;28;45448;-69
2023/03/13 13:42:30;;;;;;;;;1.50;1.50;;;;;19.45;54.37;99536.06;5062880;28;45250;-68
2023/03/13 13:45:03;;;;;;;;;2.00;1.00;;;;;19.32;54.27;99513.84;5072854;28;45421;-73
2023/03/13 13:47:31;;;;;;;;;3.00;1.25;;;;;18.97;54.10;99542.72;5074052;28;45281;-70
2023/03/13 13:49:59;;;;;;;;;2.75;1.50;;;;;18.59;54.71;99510.38;5071229;28;45448;-70
2023/03/13 13:52:38;;;;;;;;;4.00;1.00;;;;;18.44;54.85;99505.44;5062960;28;45414;-70
2023/03/13 13:55:25;;;;;;;;;1.00;0.50;;;;;18.75;54.82;99510.56;5065857;28;45390;-70
2023/03/13 13:57:58;;;;;;;;;1.75;1.50;;;;;18.67;53.50;99508.63;5066432;28;46608;-71
2023/03/13 14:00:33;;;;;;;;;0.75;0.75;;;;;18.65;53.74;99469.91;5056896;28;45508;-69
2023/03/13 14:02:59;;;;;;;;;1.00;1.00;;;;;19.02;53.46;99463.50;5063975;28;45319;-69
2023/03/13 14:05:31;;;;;;;;;0.50;0.50;;;;;19.31;51.56;99464.09;5076255;28;45523;-70
2023/03/13 14:07:56;;;;;;;;;0.75;0.75;;;;;19.50;51.89;99455.78;5076157;28;46297;-71
2023/03/13 14:10:39;;;;;;;;;1.50;1.00;;;;;19.40;51.46;99459.56;5076712;28;45420;-69
2023/03/13 14:13:21;;;;;;;;;1.50;1.50;;;;;18.96;52.18;99450.53;5074951;28;45369;-70
2023/03/13 14:15:48;;;;;;;;;1.00;1.00;;;;;18.83;52.85;99445.47;5075398;28;45528;-70
2023/03/13 14:18:29;;;;;;;;;0.50;0.50;;;;;18.31;53.51;99466.91;5076690;28;46331;-69
2023/03/13 14:20:59;;;;;;;;;1.25;0.00;;;;;17.96;55.12;99454.06;5063226;28;45504;-69
2023/03/13 14:23:45;;;;;;;;;1.00;1.00;;;;;17.88;55.35;99447.69;5060785;28;45699;-68
2023/03/13 14:26:17;;;;;;;;;1.00;1.00;;;;;17.82;55.54;99434.72;5038089;28;45469;-69
2023/03/13 14:28:58;;;;;;;;;1.75;1.75;;;;;17.81;55.84;99433.88;5056176;28;46260;-70
2023/03/13 14:31:28;;;;;;;;;3.00;1.00;;;;;17.63;56.52;99417.53;5037928;28;45372;-70
2023/03/13 14:33:59;;;;;;;;;2.00;2.00;;;;;17.40;56.88;99424.25;5055717;28;45357;-70
2023/03/13 14:36:26;;;;;;;;;0.00;0.00;;;;;17.27;57.51;99421.00;5056069;28;45372;-70
2023/03/13 14:38:53;;;;;;;;;1.50;1.50;;;;;17.22;57.39;99413.31;5064465;28;45513;-70
2023/03/13 14:41:43;;;;;;;;;0.00;0.00;;;;;17.13;57.77;99413.31;5076259;28;45539;-71
2023/03/13 14:44:28;;;;;;;;;1.50;0.00;;;;;17.15;58.10;99414.03;5076251;28;45544;-70
2023/03/13 14:46:57;;;;;;;;;1.75;0.00;;;;;17.01;58.25;99412.66;5076397;28;45431;-70
2023/03/13 14:49:25;;;;;;;;;0.75;0.75;;;;;16.86;57.96;99403.22;5076273;28;46061;-71
2023/03/13 14:52:06;;;;;;;;;0.50;0.50;;;;;16.86;58.56;99417.63;5069267;28;45387;-71
2023/03/13 14:54:34;;;;;;;;;0.00;0.00;;;;;16.91;58.41;99428.88;5071610;28;45223;-72
2023/03/13 14:57:12;;;;;;;;;1.50;1.00;;;;;16.93;58.18;99436.84;5056031;28;45607;-70
2023/03/13 14:59:38;;;;;;;;;1.00;1.00;;;;;16.81;58.43;99432.59;5037386;28;47036;-70
2023/03/13 15:02:14;;;;;;;;;2.00;0.50;;;;;16.83;58.44;99419.78;5064168;28;45410;-70
2023/03/13 15:05:03;;;;;;;;;1.00;1.00;;;;;16.70;58.88;99422.72;5063623;28;45568;-72
2023/03/13 15:07:37;;;;;;;;;0.00;0.00;;;;;16.63;59.17;99435.97;5075298;28;45420;-71
2023/03/13 15:10:31;;;;;;;;;1.00;1.00;;;;;16.51;59.80;99431.66;5076059;28;46078;-70
2023/03/13 15:12:57;;;;;;;;;0.00;0.00;;;;;16.48;59.89;99433.78;5076232;28;45332;-69
2023/03/13 15:15:22;;;;;;;;;0.00;0.00;;;;;16.33;60.61;99413.56;5076123;28;45576;-70
2023/03/13 15:17:49;;;;;;;;;0.25;0.25;;;;;16.38;60.71;99419.38;5076181;28;45755;-71
2023/03/13 15:20:15;;;;;;;;;1.75;1.00;;;;;16.37;61.08;99393.34;5073671;28;45323;-71
2023/03/13 15:22:44;;;;;;;;;1.50;0.50;;;;;16.30;61.12;99384.06;5063819;28;45465;-69
2023/03/13 15:25:20;;;;;;;;;1.50;0.75;;;;;16.27;61.46;99372.53;5076229;28;45521;-71
2023/03/13 15:27:47;;;;;;;;;1.25;1.25;;;;;16.31;61.44;99364.16;5075931;28;45377;-72
2023/03/13 15:30:19;;;;;;;;;1.25;0.75;;;;;16.23;61.89;99362.16;5071567;28;45950;-69
2023/03/13 15:32:45;;;;;;;;;0.00;0.00;;;;;16.18;61.89;99349.03;5055479;28;45377;-70
2023/03/13 15:35:32;;;;;;;;;1.00;1.00;;;;;16.10;62.43;99356.13;5055425;28;45379;-71
2023/03/13 15:38:00;;;;;;;;;3.00;0.75;;;;;16.10;62.56;99339.91;5055064;28;45335;-72
2023/03/13 15:40:27;;;;;;;;;0.25;0.25;;;;;16.02;62.97;99345.16;5055350;28;45459;-70
2023/03/13 15:42:53;;;;;;;;;2.00;0.00;;;;;16.04;63.22;99345.88;5055435;28;45328;-71
2023/03/13 15:45:19;;;;;;;;;1.00;1.00;;;;;15.95;63.46;99363.78;5055656;28;45469;-71
2023/03/13 15:47:44;;;;;;;;;0.00;0.00;;;;;15.78;64.38;99330.16;5054965;28;45319;-71
2023/03/13 15:50:12;;;;;;;;;0.00;0.00;;;;;15.82;64.64;99338.88;5055368;28;45466;-70
2023/03/13 15:52:37;;;;;;;;;0.00;0.00;;;;;15.75;65.35;99332.28;5059873;28;45389;-73
2023/03/13 15:55:06;;;;;;;;;1.00;1.00;;;;;15.74;65.60;99327.84;5055980;28;45323;-69
2023/03/13 15:57:31;;;;;;;;;0.50;0.50;;;;;15.79;65.43;99315.66;5061757;28;45505;-71
2023/03/13 15:59:57;;;;;;;;;2.00;0.00;;;;;15.72;65.22;99300.16;5055084;28;46032;-71
2023/03/13 16:02:23;;;;;;;;;0.00;0.00;;;;;15.81;65.54;99310.97;5056325;28;45345;-72
2023/03/13 16:04:49;;;;;;;;;0.75;0.00;;;;;15.80;65.28;99316.53;5066416;28;45238;-72
2023/03/13 16:07:17;;;;;;;;;0.00;0.00;;;;;15.76;65.51;99296.16;5070440;28;45310;-70
2023/03/13 16:09:43;;;;;;;;;0.00;0.00;;;;;15.85;65.58;99306.13;5075081;28;45394;-71
2023/03/13 16:12:10;;;;;;;;;0.25;0.25;;;;;15.81;65.48;99304.72;5074989;28;45517;-70
2023/03/13 16:14:36;;;;;;;;;0.25;0.25;;;;;15.75;65.54;99302.56;5075325;28;45333;-73
2023/03/13 16:17:09;;;;;;;;;0.00;0.00;;;;;15.66;65.82;99281.75;5075423;28;45578;-72
2023/03/13 16:19:36;;;;;;;;;1.25;0.00;;;;;15.97;65.29;99296.06;5074915;28;45564;-72
2023/03/13 16:22:02;;;;;;;;;2.00;1.00;;;;;16.15;64.41;99295.25;5044076;28;45394;-74
2023/03/13 16:24:27;;;;;;;;;1.75;0.25;;;;;16.17;64.16;99297.78;5056517;28;45374;-73
2023/03/13 16:26:53;;;;;;;;;1.00;1.00;;;;;16.35;64.15;99301.50;5063543;28;54427;-72
2023/03/13 16:29:18;;;;;;;;;1.00;1.00;;;;;16.40;64.03;99296.53;5054770;28;48650;-73
2023/03/13 16:31:43;;;;;;;;;1.00;1.00;;;;;16.37;64.03;99286.00;5071230;28;45330;-72
2023/03/13 16:34:09;;;;;;;;;1.00;0.00;;;;;16.23;64.57;99295.41;5073951;28;45289;-71
2023/03/13 16:36:35;;;;;;;;;0.00;0.00;;;;;16.13;65.00;99270.19;5074980;28;45334;-75
2023/03/13 16:39:05;;;;;;;;;0.75;0.75;;;;;16.16;65.08;99275.31;5068520;28;45428;-73
2023/03/13 16:41:31;;;;;;;;;3.00;0.00;;;;;16.13;64.92;99299.09;5062122;28;45640;-73
2023/03/13 16:43:57;;;;;;;;;0.00;0.00;;;;;16.19;64.52;99269.63;5064911;28;45501;-72
2023/03/13 16:46:26;;;;;;;;;1.00;1.00;;;;;16.17;64.03;99268.03;5069961;28;45387;-72
2023/03/13 16:48:52;;;;;;;;;1.00;0.00;;;;;16.14;64.54;99276.47;5054033;28;45270;-73
2023/03/13 16:51:17;;;;;;;;;1.00;1.00;;;;;16.18;64.38;99257.09;5067676;28;45339;-70
2023/03/13 16:53:45;;;;;;;;;1.00;1.00;;;;;16.34;63.98;99294.38;5054148;28;45445;-70
2023/03/13 16:56:27;;;;;;;;;0.75;0.75;;;;;16.27;64.11;99252.69;5055257;28;45561;-75
2023/03/13 16:58:54;;;;;;;;;2.00;0.75;;;;;16.42;63.60;99237.72;5051700;28;45727;-72
2023/03/13 17:01:22;;;;;;;;;0.50;0.50;;;;;16.48;62.77;99245.28;5034784;28;45754;-70
2023/03/13 17:03:47;;;;;;;;;2.25;1.00;;;;;16.49;62.56;99244.28;5074089;28;45451;-74
2023/03/13 17:06:21;;;;;;;;;2.00;1.00;;;;;16.48;62.59;99247.13;5065161;28;45708;-73
2023/03/13 17:08:47;;;;;;;;;1.00;1.00;;;;;16.47;62.24;99238.16;5050575;28;46524;-73
2023/03/13 17:11:15;;;;;;;;;2.00;2.00;;;;;16.52;62.27;99246.69;5064698;28;45309;-70
2023/03/13 17:13:46;;;;;;;;;2.25;1.00;;;;;16.42;62.37;99218.78;5073928;28;45350;-69
2023/03/13 17:16:18;;;;;;;;;2.50;1.00;;;;;16.55;62.04;99232.88;5062575;28;45608;-75
2023/03/13 17:18:45;;;;;;;;;1.00;1.00;;;;;16.41;61.93;99210.84;5059286;28;45509;-73